Time;durP1;ratioP1;P1;durP2;ratioP2;P2;SDS_P1;SDS_P2;PMS_P1;PMS_P2;Temp;Humidity;BMP_temperature;BMP_pressure;BME280_temperature;BME280_humidity;BME280_pressure;Samples;Min_cycle;Max_cycle;Signal;HPM_P1;HPM_P2
2022/10/28 00:02:13;;;;;;;;;;;;;;;13.88;49.66;96125.03;4982449;28;19997;-80
2022/10/28 00:04:38;;;;;;;;;;;;;;;14.00;47.92;96122.69;4983281;28;20005;-80
2022/10/28 00:07:04;;;;;;;;;;;;;;;13.86;49.92;96121.69;4983190;28;20019;-79
2022/10/28 00:09:29;;;;;;;;;;;;;;;14.08;47.89;96119.91;4983264;28;19984;-80
2022/10/28 00:11:54;;;;;;;;;;;;;;;14.21;48.78;96126.44;4985471;28;20431;-80
2022/10/28 00:14:19;;;;;;;;;;;;;;;14.19;48.55;96121.28;4983568;28;20043;-80
2022/10/28 00:16:44;;;;;;;;;;;;;;;14.23;49.03;96115.53;4966745;28;20212;-78
2022/10/28 00:19:10;;;;;;;;;;;;;;;14.27;47.55;96114.13;4984094;28;20363;-80
2022/10/28 00:21:36;;;;;;;;;;;;;;;14.31;48.53;96112.78;4966523;28;19994;-78
2022/10/28 00:24:01;;;;;;;;;;;;;;;14.40;48.01;96116.13;4960498;28;19962;-81
2022/10/28 00:26:27;;;;;;;;;;;;;;;14.52;48.28;96117.28;4984127;28;20021;-77
2022/10/28 00:29:03;;;;;;;;;;;;;;;14.50;48.17;96113.13;4984673;28;20044;-79
2022/10/28 00:31:28;;;;;;;;;;;;;;;14.55;47.48;96110.75;4984460;28;20024;-79
2022/10/28 00:33:54;;;;;;;;;;;;;;;14.62;47.75;96108.91;4964533;28;19990;-77
2022/10/28 00:36:19;;;;;;;;;;;;;;;14.82;47.35;96101.09;4983455;28;19971;-81
2022/10/28 00:38:45;;;;;;;;;;;;;;;14.82;46.75;96101.09;4983883;28;19993;-80
2022/10/28 00:41:11;;;;;;;;;;;;;;;14.65;47.39;96088.97;4984799;28;20462;-79
2022/10/28 00:43:37;;;;;;;;;;;;;;;14.74;47.79;96098.56;4964670;28;19990;-78
2022/10/28 00:46:02;;;;;;;;;;;;;;;14.74;46.70;96095.88;4965560;28;20023;-80
2022/10/28 00:48:28;;;;;;;;;;;;;;;14.74;47.46;96089.69;4958977;28;20485;-79
2022/10/28 00:50:53;;;;;;;;;;;;;;;14.92;47.43;96097.28;4983463;28;20553;-79
2022/10/28 00:53:23;;;;;;;;;;;;;;;14.86;46.60;96096.19;4961159;28;19970;-79
2022/10/28 00:55:48;;;;;;;;;;;;;;;14.91;46.55;96096.44;4984894;28;20005;-80
2022/10/28 00:58:14;;;;;;;;;;;;;;;14.93;46.56;96093.56;4961586;28;19986;-78
2022/10/28 01:00:39;;;;;;;;;;;;;;;14.80;47.23;96084.41;4970516;28;19978;-79
2022/10/28 01:03:04;;;;;;;;;;;;;;;14.65;47.69;96078.25;4971167;28;19990;-80
2022/10/28 01:05:30;;;;;;;;;;;;;;;14.87;46.41;96073.72;4990161;28;20008;-78
2022/10/28 01:07:57;;;;;;;;;;;;;;;14.67;48.17;96060.97;4971383;28;19996;-80
2022/10/28 01:10:23;;;;;;;;;;;;;;;14.86;47.04;96050.63;4976405;28;20475;-81
2022/10/28 01:12:56;;;;;;;;;;;;;;;15.08;47.26;96055.91;4969313;28;19978;-80
2022/10/28 01:15:34;;;;;;;;;;;;;;;15.22;47.16;96054.16;4973614;28;20016;-78
2022/10/28 01:18:03;;;;;;;;;;;;;;;15.21;46.75;96061.38;4980360;28;20096;-78
2022/10/28 01:20:47;;;;;;;;;;;;;;;15.38;46.66;96061.06;4994571;28;19976;-79
2022/10/28 01:23:12;;;;;;;;;;;;;;;15.31;46.56;96062.88;4992437;28;20392;-78
2022/10/28 01:25:50;;;;;;;;;;;;;;;15.31;46.53;96062.88;4988539;28;19981;-78
2022/10/28 01:28:30;;;;;;;;;;;;;;;15.58;45.90;96066.56;4986432;28;20033;-80
2022/10/28 01:31:05;;;;;;;;;;;;;;;15.52;46.11;96061.13;4986880;28;20062;-81
2022/10/28 01:33:45;;;;;;;;;;;;;;;15.59;45.72;96062.00;4969425;28;19969;-78
2022/10/28 01:36:18;;;;;;;;;;;;;;;15.52;46.27;96058.44;4971450;28;20669;-78
2022/10/28 01:38:57;;;;;;;;;;;;;;;15.56;46.14;96078.50;4991291;28;20096;-79
2022/10/28 01:41:26;;;;;;;;;;;;;;;15.59;46.08;96067.38;4992940;28;19980;-78
2022/10/28 01:44:11;;;;;;;;;;;;;;;15.56;45.67;96079.34;4974218;28;19967;-78
2022/10/28 01:46:38;;;;;;;;;;;;;;;15.69;45.54;96073.22;4988277;28;20197;-80
2022/10/28 01:49:15;;;;;;;;;;;;;;;15.70;45.37;96074.88;4965149;28;19993;-77
2022/10/28 01:51:47;;;;;;;;;;;;;;;15.45;46.44;96087.91;4962478;28;20377;-78
2022/10/28 01:54:13;;;;;;;;;;;;;;;15.56;45.75;96083.88;4968562;28;20035;-80
2022/10/28 01:56:39;;;;;;;;;;;;;;;15.33;45.65;96087.66;4970952;28;20433;-77
2022/10/28 01:59:05;;;;;;;;;;;;;;;15.64;46.02;96083.72;4971722;28;20263;-80
2022/10/28 02:01:30;;;;;;;;;;;;;;;15.51;45.48;96078.25;4969342;28;20465;-80
2022/10/28 02:03:56;;;;;;;;;;;;;;;15.60;45.79;96075.22;4970947;28;20034;-78
2022/10/28 02:06:21;;;;;;;;;;;;;;;15.60;45.87;96069.88;4972434;28;20674;-78
2022/10/28 02:08:52;;;;;;;;;;;;;;;15.56;45.20;96071.28;4970090;28;19974;-78
2022/10/28 02:11:18;;;;;;;;;;;;;;;15.45;45.18;96066.47;4986872;28;20033;-79
2022/10/28 02:14:02;;;;;;;;;;;;;;;15.39;45.81;96064.56;4986215;28;19993;-78
2022/10/28 02:16:46;;;;;;;;;;;;;;;15.39;45.28;96067.22;4986463;28;19978;-79
2022/10/28 02:19:25;;;;;;;;;;;;;;;15.27;45.34;96053.56;4985860;28;19994;-79
2022/10/28 02:22:14;;;;;;;;;;;;;;;15.32;46.39;96049.28;4967970;28;20012;-80
2022/10/28 02:24:48;;;;;;;;;;;;;;;15.22;45.25;96041.59;4962302;28;20073;-80
2022/10/28 02:27:23;;;;;;;;;;;;;;;15.05;45.77;96040.22;4991289;28;19990;-78
2022/10/28 02:29:49;;;;;;;;;;;;;;;15.03;45.75;96042.28;4989740;28;19997;-80
2022/10/28 02:32:16;;;;;;;;;;;;;;;14.85;45.74;96032.88;4971518;28;20101;-79
2022/10/28 02:34:42;;;;;;;;;;;;;;;14.76;47.49;96034.91;4972759;28;19990;-77
2022/10/28 02:37:10;;;;;;;;;;;;;;;14.78;46.13;96032.81;4966177;28;19970;-78
2022/10/28 02:39:37;;;;;;;;;;;;;;;14.79;46.90;96031.00;4966679;28;20093;-79
2022/10/28 02:42:08;;;;;;;;;;;;;;;14.84;46.44;96026.69;4973073;28;20085;-78
2022/10/28 02:44:34;;;;;;;;;;;;;;;14.89;46.84;96025.28;4990680;28;20014;-77
2022/10/28 02:47:00;;;;;;;;;;;;;;;14.92;47.19;96025.72;4972648;28;20549;-80
2022/10/28 02:49:26;;;;;;;;;;;;;;;14.91;47.14;96018.69;4974875;28;20041;-77
2022/10/28 02:51:52;;;;;;;;;;;;;;;15.05;45.63;96022.28;4969891;28;20067;-81
2022/10/28 02:54:20;;;;;;;;;;;;;;;15.14;46.30;96019.44;4954910;28;20065;-79
2022/10/28 02:56:50;;;;;;;;;;;;;;;15.33;46.03;96031.34;4994324;28;19971;-78
2022/10/28 02:59:15;;;;;;;;;;;;;;;15.39;46.15;96024.31;4975055;28;20233;-78
2022/10/28 03:01:40;;;;;;;;;;;;;;;15.31;45.83;96022.63;4995273;28;20081;-79
2022/10/28 03:04:06;;;;;;;;;;;;;;;15.41;45.70;96022.28;4993287;28;19985;-79
2022/10/28 03:06:31;;;;;;;;;;;;;;;15.58;45.59;96018.28;4994493;28;20045;-78
2022/10/28 03:08:56;;;;;;;;;;;;;;;15.56;45.85;96019.47;4970810;28;19982;-79
2022/10/28 03:11:21;;;;;;;;;;;;;;;15.61;45.63;96015.16;4974613;28;20222;-78
2022/10/28 03:13:47;;;;;;;;;;;;;;;15.51;46.19;96016.53;4976652;28;20000;-79
2022/10/28 03:16:12;;;;;;;;;;;;;;;15.59;45.94;96014.56;4992098;28;20049;-80
2022/10/28 03:18:37;;;;;;;;;;;;;;;15.65;45.68;96007.56;4989873;28;20233;-80
2022/10/28 03:21:02;;;;;;;;;;;;;;;15.74;45.58;96013.59;4992411;28;20451;-78
2022/10/28 03:23:28;;;;;;;;;;;;;;;15.74;45.50;96016.25;4957190;28;20571;-79
2022/10/28 03:25:53;;;;;;;;;;;;;;;15.74;44.86;96011.69;4991466;28;19990;-80
2022/10/28 03:28:18;;;;;;;;;;;;;;;15.77;45.51;96015.03;4976072;28;20514;-80
2022/10/28 03:30:43;;;;;;;;;;;;;;;15.91;45.09;96013.22;4991796;28;20725;-77
2022/10/28 03:33:09;;;;;;;;;;;;;;;15.83;45.34;96008.84;4994237;28;19985;-79
2022/10/28 03:35:34;;;;;;;;;;;;;;;15.69;44.80;96011.50;4992289;28;19994;-80
2022/10/28 03:37:59;;;;;;;;;;;;;;;15.40;46.01;96010.72;4994885;28;19986;-80
2022/10/28 03:40:24;;;;;;;;;;;;;;;15.79;45.33;96003.06;4995941;28;20112;-78
2022/10/28 03:42:50;;;;;;;;;;;;;;;15.86;45.18;95995.00;4995948;28;20155;-79
2022/10/28 03:45:15;;;;;;;;;;;;;;;15.96;45.18;95997.31;4994677;28;19970;-78
2022/10/28 03:47:40;;;;;;;;;;;;;;;15.59;44.90;95995.78;4995722;28;20316;-79
2022/10/28 03:50:06;;;;;;;;;;;;;;;15.70;45.67;96002.41;4995779;28;20371;-77
2022/10/28 03:52:31;;;;;;;;;;;;;;;15.73;45.45;95993.94;4994350;28;19982;-81
2022/10/28 03:54:56;;;;;;;;;;;;;;;15.93;45.04;95990.50;4994703;28;21528;-78
2022/10/28 03:57:21;;;;;;;;;;;;;;;15.86;45.17;95990.47;4995437;28;20461;-77
2022/10/28 03:59:47;;;;;;;;;;;;;;;15.60;44.64;96004.63;4952602;28;19990;-78
2022/10/28 04:02:14;;;;;;;;;;;;;;;15.59;45.50;96014.56;4996711;28;19990;-78
2022/10/28 04:04:39;;;;;;;;;;;;;;;15.46;45.43;96009.91;4981039;28;20016;-78
2022/10/28 04:07:04;;;;;;;;;;;;;;;15.68;45.01;96027.78;4994911;28;20041;-77
2022/10/28 04:09:30;;;;;;;;;;;;;;;15.55;45.28;96020.47;4997702;28;21236;-77
2022/10/28 04:11:55;;;;;;;;;;;;;;;15.64;44.75;96018.50;5000418;28;19967;-77
2022/10/28 04:14:20;;;;;;;;;;;;;;;15.78;44.80;96011.31;5000715;28;19990;-79
2022/10/28 04:16:45;;;;;;;;;;;;;;;15.86;44.72;96008.44;4999172;28;20412;-78
2022/10/28 04:19:10;;;;;;;;;;;;;;;15.43;45.15;96007.63;4998104;28;20029;-78
2022/10/28 04:21:36;;;;;;;;;;;;;;;15.67;44.87;95994.75;4991513;28;19989;-79
2022/10/28 04:24:01;;;;;;;;;;;;;;;15.58;44.55;95987.91;4995328;28;19993;-81
2022/10/28 04:26:26;;;;;;;;;;;;;;;15.16;45.34;95988.72;4992937;28;20024;-79
2022/10/28 04:28:51;;;;;;;;;;;;;;;15.53;44.85;95979.63;4998468;28;19970;-77
2022/10/28 04:31:17;;;;;;;;;;;;;;;15.27;44.98;95979.31;5001366;28;20005;-78
2022/10/28 04:33:42;;;;;;;;;;;;;;;15.51;44.73;95976.28;5001086;28;19990;-78
2022/10/28 04:36:07;;;;;;;;;;;;;;;15.35;44.87;95975.63;5003462;28;19978;-78
2022/10/28 04:38:32;;;;;;;;;;;;;;;15.61;44.57;95969.53;4982105;28;20260;-77
2022/10/28 04:40:58;;;;;;;;;;;;;;;15.73;43.98;95969.78;5000518;28;19970;-79
2022/10/28 04:43:23;;;;;;;;;;;;;;;15.23;45.53;95970.81;4983653;28;20021;-79
2022/10/28 04:45:48;;;;;;;;;;;;;;;15.35;45.01;95962.19;4998961;28;19990;-77
2022/10/28 04:48:13;;;;;;;;;;;;;;;15.04;45.49;95967.03;4981239;28;20266;-78
2022/10/28 04:50:39;;;;;;;;;;;;;;;14.96;45.69;95967.19;4979154;28;20194;-77
2022/10/28 04:53:04;;;;;;;;;;;;;;;15.28;44.92;95966.72;4998801;28;19981;-79
2022/10/28 04:55:29;;;;;;;;;;;;;;;14.95;45.62;95966.34;4996536;28;19990;-79
2022/10/28 04:57:55;;;;;;;;;;;;;;;14.99;45.53;95969.44;4993216;28;20108;-78
2022/10/28 05:00:20;;;;;;;;;;;;;;;14.99;45.21;95956.03;4982189;28;19981;-79
2022/10/28 05:02:45;;;;;;;;;;;;;;;14.90;45.61;95955.41;4998316;28;19990;-78
2022/10/28 05:05:11;;;;;;;;;;;;;;;14.87;45.71;95963.84;4987001;28;20088;-77
2022/10/28 05:07:36;;;;;;;;;;;;;;;15.07;45.22;95963.94;5003971;28;19982;-77
2022/10/28 05:10:02;;;;;;;;;;;;;;;14.91;45.47;95961.56;4987536;28;20005;-77
2022/10/28 05:12:27;;;;;;;;;;;;;;;14.72;45.98;95964.72;5002375;28;19975;-79
2022/10/28 05:14:52;;;;;;;;;;;;;;;14.62;46.01;95961.56;4975750;28;20458;-81
2022/10/28 05:17:17;;;;;;;;;;;;;;;14.87;45.55;95963.84;4999773;28;20036;-78
2022/10/28 05:19:44;;;;;;;;;;;;;;;14.67;45.63;95959.13;5002008;28;21473;-77
2022/10/28 05:22:09;;;;;;;;;;;;;;;14.84;45.50;95959.69;4989331;28;19994;-77
2022/10/28 05:24:34;;;;;;;;;;;;;;;14.93;45.25;95960.34;5007021;28;19963;-77
2022/10/28 05:26:59;;;;;;;;;;;;;;;14.83;45.60;95962.56;5005806;28;19998;-77
2022/10/28 05:29:25;;;;;;;;;;;;;;;14.72;45.68;95962.06;5006918;28;19990;-79
2022/10/28 05:31:50;;;;;;;;;;;;;;;14.62;45.90;95960.75;5006644;28;20181;-77
2022/10/28 05:34:15;;;;;;;;;;;;;;;14.34;46.51;95954.34;5005529;28;20003;-77
2022/10/28 05:36:41;;;;;;;;;;;;;;;14.51;46.20;95957.56;5006996;28;19997;-78
2022/10/28 05:39:06;;;;;;;;;;;;;;;14.23;46.77;95957.56;4987402;28;19997;-77
2022/10/28 05:41:31;;;;;;;;;;;;;;;14.49;46.00;95954.28;4988002;28;20264;-78
2022/10/28 05:43:56;;;;;;;;;;;;;;;14.48;46.28;95954.47;5006475;28;19974;-77
2022/10/28 05:46:22;;;;;;;;;;;;;;;14.79;45.29;95961.31;5007563;28;19978;-78
2022/10/28 05:48:47;;;;;;;;;;;;;;;14.66;45.77;95952.13;5005174;28;20038;-78
2022/10/28 05:51:12;;;;;;;;;;;;;;;14.34;46.35;95949.00;5004354;28;19992;-78
2022/10/28 05:53:40;;;;;;;;;;;;;;;14.45;46.26;95955.69;5005476;28;19994;-78
2022/10/28 05:56:05;;;;;;;;;;;;;;;14.63;45.70;95952.53;4987098;28;20236;-79
2022/10/28 05:58:31;;;;;;;;;;;;;;;14.83;45.19;95959.88;5006399;28;20255;-78
2022/10/28 06:00:56;;;;;;;;;;;;;;;14.84;45.10;95961.53;4998617;28;20243;-80
2022/10/28 06:03:21;;;;;;;;;;;;;;;14.92;44.99;95961.38;5008349;28;19973;-78
2022/10/28 06:05:46;;;;;;;;;;;;;;;14.83;45.13;95960.69;5008996;28;19991;-79
2022/10/28 06:08:12;;;;;;;;;;;;;;;14.98;45.11;95959.75;4974466;28;19986;-78
2022/10/28 06:10:37;;;;;;;;;;;;;;;14.78;45.33;95959.63;4984160;28;19994;-79
2022/10/28 06:13:02;;;;;;;;;;;;;;;14.87;45.31;95969.19;4989791;28;20231;-77
2022/10/28 06:15:28;;;;;;;;;;;;;;;14.76;45.56;95964.38;4987768;28;19982;-79
2022/10/28 06:17:53;;;;;;;;;;;;;;;14.75;45.57;95968.09;5006530;28;20016;-80
2022/10/28 06:20:18;;;;;;;;;;;;;;;14.93;45.19;95984.47;5008410;28;20054;-78
2022/10/28 06:23:01;;;;;;;;;;;;;;;14.92;45.14;95996.22;4990836;28;19994;-78
2022/10/28 06:25:27;;;;;;;;;;;;;;;15.07;44.88;95992.59;5000448;28;19978;-78
2022/10/28 06:27:55;;;;;;;;;;;;;;;15.19;44.72;96004.44;5008074;28;19976;-79
2022/10/28 06:30:20;;;;;;;;;;;;;;;15.26;44.23;96000.97;5008901;28;20295;-78
2022/10/28 06:32:46;;;;;;;;;;;;;;;15.17;44.60;95993.09;5007378;28;20209;-78
2022/10/28 06:35:11;;;;;;;;;;;;;;;15.09;45.09;95998.59;5005525;28;19974;-79
2022/10/28 06:37:36;;;;;;;;;;;;;;;15.48;44.38;95999.00;4971691;28;19992;-78
2022/10/28 06:40:02;;;;;;;;;;;;;;;15.58;44.09;96004.84;5002430;28;19982;-78
2022/10/28 06:42:27;;;;;;;;;;;;;;;15.67;44.36;96005.47;4996528;28;19997;-67
2022/10/28 06:44:53;;;;;;;;;;;;;;;15.77;44.05;96009.66;4977091;28;19970;-67
2022/10/28 06:47:18;;;;;;;;;;;;;;;15.78;43.82;96014.00;4981051;28;20037;-67
2022/10/28 06:49:44;;;;;;;;;;;;;;;15.83;43.02;96019.56;4980115;28;20154;-67
2022/10/28 06:52:09;;;;;;;;;;;;;;;15.44;43.78;96017.31;4979709;28;20048;-67
2022/10/28 06:54:34;;;;;;;;;;;;;;;15.61;43.17;96020.53;4974136;28;20068;-68
2022/10/28 06:56:59;;;;;;;;;;;;;;;15.62;43.01;96021.38;4981780;28;20016;-67
2022/10/28 06:59:24;;;;;;;;;;;;;;;15.69;43.44;96029.44;4979295;28;20261;-67
2022/10/28 07:01:50;;;;;;;;;;;;;;;15.38;43.35;96028.03;4981872;28;20022;-68
2022/10/28 07:04:15;;;;;;;;;;;;;;;15.56;43.86;96030.22;4980453;28;19974;-67
2022/10/28 07:06:40;;;;;;;;;;;;;;;15.78;43.31;96020.19;4981378;28;20001;-67
2022/10/28 07:09:05;;;;;;;;;;;;;;;15.66;42.93;96019.94;4970184;28;20020;-68
2022/10/28 07:11:31;;;;;;;;;;;;;;;15.77;42.49;96026.56;4977790;28;20515;-67
2022/10/28 07:13:56;;;;;;;;;;;;;;;15.69;43.59;96034.81;4981298;28;20022;-74
2022/10/28 07:16:21;;;;;;;;;;;;;;;15.72;43.21;96021.84;4983531;28;19978;-69
2022/10/28 07:18:46;;;;;;;;;;;;;;;15.86;42.12;96022.69;4981898;28;19997;-69
2022/10/28 07:21:13;;;;;;;;;;;;;;;15.66;42.68;96022.63;4980026;28;20365;-70
2022/10/28 07:23:38;;;;;;;;;;;;;;;15.66;43.22;96025.31;4957579;28;20377;-69
2022/10/28 07:26:03;;;;;;;;;;;;;;;15.64;42.79;96027.38;4979967;28;19986;-70
2022/10/28 07:28:29;;;;;;;;;;;;;;;15.70;42.64;96018.50;4979772;28;19978;-66
2022/10/28 07:30:54;;;;;;;;;;;;;;;15.79;42.67;96018.31;4979834;28;20038;-66
2022/10/28 07:33:19;;;;;;;;;;;;;;;15.85;42.72;96023.69;4978783;28;20062;-66
2022/10/28 07:35:44;;;;;;;;;;;;;;;15.93;42.15;96030.75;4979419;28;19974;-67
2022/10/28 07:38:10;;;;;;;;;;;;;;;16.07;41.95;96023.56;4979548;28;20601;-66
2022/10/28 07:40:35;;;;;;;;;;;;;;;15.97;43.17;96021.28;4979827;28;20283;-67
2022/10/28 07:43:00;;;;;;;;;;;;;;;16.23;41.59;96027.75;4978917;28;19990;-64
2022/10/28 07:45:25;;;;;;;;;;;;;;;16.39;42.40;96025.72;4978633;28;20158;-64
2022/10/28 07:47:51;;;;;;;;;;;;;;;16.39;41.24;96028.41;4977890;28;19977;-64
2022/10/28 07:50:16;;;;;;;;;;;;;;;16.49;41.30;96028.00;4978385;28;20008;-64
2022/10/28 07:52:41;;;;;;;;;;;;;;;16.57;40.85;96029.66;4978465;28;20405;-63
2022/10/28 07:55:07;;;;;;;;;;;;;;;16.75;40.88;96024.47;4978508;28;20011;-63
2022/10/28 07:57:35;;;;;;;;;;;;;;;16.66;41.10;96031.09;4979780;28;19973;-64
2022/10/28 08:00:00;;;;;;;;;;;;;;;16.71;40.48;96023.25;4979752;28;19970;-64
2022/10/28 08:02:25;;;;;;;;;;;;;;;16.90;41.35;96026.94;4977355;28;20497;-64
2022/10/28 08:04:51;;;;;;;;;;;;;;;16.88;41.20;96030.88;4980952;28;19978;-63
2022/10/28 08:07:16;;;;;;;;;;;;;;;16.83;41.00;96025.31;4979954;28;20572;-64
2022/10/28 08:09:41;;;;;;;;;;;;;;;16.79;41.41;96026.75;4979419;28;20006;-65
2022/10/28 08:12:07;;;;;;;;;;;;;;;16.77;41.23;96030.47;4980030;28;20345;-68
2022/10/28 08:14:32;;;;;;;;;;;;;;;16.62;41.81;96035.22;4977634;28;19990;-64
2022/10/28 08:16:57;;;;;;;;;;;;;;;16.45;42.14;96032.94;4979245;28;20024;-64
2022/10/28 08:19:22;;;;;;;;;;;;;;;16.75;40.84;96035.22;4980373;28;20021;-65
2022/10/28 08:21:48;;;;;;;;;;;;;;;17.06;40.71;96042.88;4977108;28;20025;-65
2022/10/28 08:24:13;;;;;;;;;;;;;;;16.69;40.69;96046.00;4980992;28;20613;-65
2022/10/28 08:26:38;;;;;;;;;;;;;;;16.96;41.12;96029.84;4976056;28;19996;-65
2022/10/28 08:29:03;;;;;;;;;;;;;;;17.19;40.25;96040.16;4981001;28;20418;-64
2022/10/28 08:31:30;;;;;;;;;;;;;;;17.16;40.08;96032.50;4977860;28;19993;-66
2022/10/28 08:33:55;;;;;;;;;;;;;;;17.13;40.97;96033.75;4978347;28;20486;-80
2022/10/28 08:36:21;;;;;;;;;;;;;;;17.08;40.36;96036.25;4981277;28;20074;-81
2022/10/28 08:38:46;;;;;;;;;;;;;;;16.75;41.41;96037.09;4980104;28;20392;-80
2022/10/28 08:41:18;;;;;;;;;;;;;;;17.17;40.20;96034.19;4978118;28;20446;-82
2022/10/28 08:43:43;;;;;;;;;;;;;;;17.31;39.35;96031.44;4962401;28;20019;-83
2022/10/28 08:46:23;;;;;;;;;;;;;;;17.44;39.23;96023.31;4962732;28;20043;-81
2022/10/28 08:48:48;;;;;;;;;;;;;;;17.34;39.89;96022.97;4977961;28;19979;-80
2022/10/28 08:51:18;;;;;;;;;;;;;;;17.36;39.14;96023.56;4962215;28;20463;-68
2022/10/28 08:53:49;;;;;;;;;;;;;;;16.63;41.46;96035.00;4978997;28;19974;-69
2022/10/28 08:56:15;;;;;;;;;;;;;;;17.19;40.24;96032.09;4960747;28;20053;-69
2022/10/28 08:58:41;;;;;;;;;;;;;;;17.32;40.08;96025.03;4961951;28;19993;-69
2022/10/28 09:01:08;;;;;;;;;;;;;;;17.34;40.15;96031.03;4978662;28;20473;-69
2022/10/28 09:03:37;;;;;;;;;;;;;;;17.11;40.56;96035.84;4961586;28;19990;-70
2022/10/28 09:06:04;;;;;;;;;;;;;;;17.46;39.64;96026.66;4955131;28;20012;-68
2022/10/28 09:08:30;;;;;;;;;;;;;;;17.54;39.21;96025.56;4976422;28;20424;-70
2022/10/28 09:11:06;;;;;;;;;;;;;;;17.46;39.04;96036.56;4976499;28;20079;-70
2022/10/28 09:13:36;;;;;;;;;;;;;;;17.92;38.54;96029.41;4957718;28;20474;-68
2022/10/28 09:16:07;;;;;;;;;;;;;;;17.92;38.99;96038.28;4962776;28;19969;-70
2022/10/28 09:18:36;;;;;;;;;;;;;;;18.23;38.62;96029.63;4976244;28;19991;-68
2022/10/28 09:21:02;;;;;;;;;;;;;;;18.36;37.77;96029.53;4978148;28;20435;-70
2022/10/28 09:23:28;;;;;;;;;;;;;;;18.02;38.17;96029.72;4962319;28;19988;-71
2022/10/28 09:25:58;;;;;;;;;;;;;;;17.92;38.13;96027.50;4954678;28;19997;-68
2022/10/28 09:28:23;;;;;;;;;;;;;;;17.05;39.82;96043.88;4957091;28;20010;-70
2022/10/28 09:30:54;;;;;;;;;;;;;;;16.77;40.49;96040.41;4977583;28;20419;-70
2022/10/28 09:33:34;;;;;;;;;;;;;;;17.85;38.65;96036.66;4964513;28;19992;-68
2022/10/28 09:35:59;;;;;;;;;;;;;;;18.26;38.67;96039.97;4963569;28;19982;-69
2022/10/28 09:38:28;;;;;;;;;;;;;;;18.11;38.57;96043.78;4957249;28;19997;-69
2022/10/28 09:40:55;;;;;;;;;;;;;;;18.59;36.83;96030.03;4981572;28;19977;-70
2022/10/28 09:43:26;;;;;;;;;;;;;;;18.82;37.22;96024.84;4961518;28;20465;-69
2022/10/28 09:45:52;;;;;;;;;;;;;;;18.75;37.42;96025.94;4981018;28;20560;-68
2022/10/28 09:48:30;;;;;;;;;;;;;;;19.13;36.65;96021.44;4962434;28;19963;-69
2022/10/28 09:50:55;;;;;;;;;;;;;;;19.29;35.91;96020.91;4958162;28;20455;-68
2022/10/28 09:53:33;;;;;;;;;;;;;;;19.59;35.35;96022.03;4978916;28;19969;-69
2022/10/28 09:55:58;;;;;;;;;;;;;;;19.80;34.81;96020.72;4964895;28;19963;-69
2022/10/28 09:58:23;;;;;;;;;;;;;;;19.39;35.57;96030.34;4983631;28;20123;-70
2022/10/28 10:00:48;;;;;;;;;;;;;;;19.66;34.87;96033.56;4983196;28;20437;-68
2022/10/28 10:03:14;;;;;;;;;;;;;;;19.24;35.75;96036.09;4964633;28;19991;-69
2022/10/28 10:05:41;;;;;;;;;;;;;;;19.76;34.71;96043.84;4980023;28;20212;-69
2022/10/28 10:08:06;;;;;;;;;;;;;;;20.03;34.37;96040.81;4965582;28;19975;-70
2022/10/28 10:10:52;;;;;;;;;;;;;;;19.58;35.28;96037.38;4959323;28;20049;-69
2022/10/28 10:13:20;;;;;;;;;;;;;;;19.79;35.16;96043.34;4981861;28;19975;-69
2022/10/28 10:15:47;;;;;;;;;;;;;;;20.05;34.58;96043.25;4980082;28;20082;-69
2022/10/28 10:18:17;;;;;;;;;;;;;;;19.36;35.94;96055.91;4981206;28;19982;-70
2022/10/28 10:20:49;;;;;;;;;;;;;;;19.52;35.30;96051.81;4982855;28;20327;-70
2022/10/28 10:23:41;;;;;;;;;;;;;;;20.11;34.11;96047.78;4978102;28;20035;-70
2022/10/28 10:26:10;;;;;;;;;;;;;;;20.47;33.83;96056.00;4975404;28;20460;-70
2022/10/28 10:28:37;;;;;;;;;;;;;;;20.57;33.24;96048.13;4982167;28;20055;-70
2022/10/28 10:31:06;;;;;;;;;;;;;;;20.94;33.40;96054.47;4981405;28;20442;-69
2022/10/28 10:33:38;;;;;;;;;;;;;;;20.87;33.60;96060.78;4979089;28;20013;-71
2022/10/28 10:36:09;;;;;;;;;;;;;;;20.78;32.84;96050.56;4960509;28;19956;-71
2022/10/28 10:38:34;;;;;;;;;;;;;;;20.67;33.61;96047.59;4980412;28;20197;-69
2022/10/28 10:41:00;;;;;;;;;;;;;;;20.78;32.94;96040.56;4983010;28;20025;-69
2022/10/28 10:43:31;;;;;;;;;;;;;;;21.62;32.56;96044.06;4979162;28;20060;-71
2022/10/28 10:46:13;;;;;;;;;;;;;;;21.46;31.49;96039.38;4980340;28;19977;-69
2022/10/28 10:48:39;;;;;;;;;;;;;;;21.21;32.71;96048.59;4979646;28;20005;-69
2022/10/28 10:51:05;;;;;;;;;;;;;;;21.74;31.67;96043.22;4980713;28;20032;-70
2022/10/28 10:53:30;;;;;;;;;;;;;;;20.83;32.94;96032.56;4980971;28;20046;-70
2022/10/28 10:55:57;;;;;;;;;;;;;;;21.59;32.56;96028.28;4979917;28;20477;-69
2022/10/28 10:58:23;;;;;;;;;;;;;;;20.67;33.80;96022.44;4963007;28;19973;-70
2022/10/28 11:00:49;;;;;;;;;;;;;;;21.42;31.99;96028.22;4964057;28;19993;-69
2022/10/28 11:03:24;;;;;;;;;;;;;;;21.89;31.89;96021.84;4981804;28;20530;-70
2022/10/28 11:05:56;;;;;;;;;;;;;;;22.23;30.96;96014.91;4981194;28;20033;-70
2022/10/28 11:08:31;;;;;;;;;;;;;;;22.59;30.53;96012.81;4980123;28;19962;-70
2022/10/28 11:11:03;;;;;;;;;;;;;;;22.52;29.34;95995.84;4981160;28;19987;-70
2022/10/28 11:13:29;;;;;;;;;;;;;;;22.68;29.51;95998.84;4981886;28;20047;-70
2022/10/28 11:16:01;;;;;;;;;;;;;;;22.95;29.96;95996.28;4983087;28;20067;-71
2022/10/28 11:18:28;;;;;;;;;;;;;;;22.90;29.77;95994.31;4982254;28;19977;-70
2022/10/28 11:20:53;;;;;;;;;;;;;;;23.43;29.11;95991.25;4982442;28;19961;-70
2022/10/28 11:23:28;;;;;;;;;;;;;;;23.84;28.27;95981.13;4981616;28;20087;-71
2022/10/28 11:25:53;;;;;;;;;;;;;;;23.93;28.13;95994.03;4964499;28;19973;-70
2022/10/28 11:28:45;;;;;;;;;;;;;;;23.87;28.40;95988.78;4956895;28;20398;-69
2022/10/28 11:31:23;;;;;;;;;;;;;;;23.88;28.64;95977.66;4976044;28;20003;-69
2022/10/28 11:34:07;;;;;;;;;;;;;;;24.21;27.59;95985.88;4963135;28;19971;-70
2022/10/28 11:36:35;;;;;;;;;;;;;;;24.05;27.63;95988.44;4978593;28;20331;-70
2022/10/28 11:39:26;;;;;;;;;;;;;;;24.02;29.06;95982.69;4975878;28;19969;-68
2022/10/28 11:41:57;;;;;;;;;;;;;;;24.39;28.21;95981.97;4975569;28;19988;-69
2022/10/28 11:44:29;;;;;;;;;;;;;;;24.45;27.72;95980.13;4979458;28;19956;-69
2022/10/28 11:46:57;;;;;;;;;;;;;;;24.51;27.31;95981.00;4980556;28;20032;-69
2022/10/28 11:49:25;;;;;;;;;;;;;;;24.94;27.20;95972.88;4981062;28;19971;-69
2022/10/28 11:52:08;;;;;;;;;;;;;;;24.73;27.20;95985.50;4981052;28;20412;-70
2022/10/28 11:54:37;;;;;;;;;;;;;;;25.03;27.76;95975.94;4979115;28;19969;-70
2022/10/28 11:57:03;;;;;;;;;;;;;;;25.20;26.51;95973.03;4962671;28;20325;-69
2022/10/28 11:59:37;;;;;;;;;;;;;;;25.95;26.21;95973.88;4979332;28;19971;-69
2022/10/28 12:02:02;;;;;;;;;;;;;;;25.77;25.65;95962.38;4980847;28;20254;-71
2022/10/28 12:04:33;;;;;;;;;;;;;;;25.42;25.93;95964.69;4980582;28;20223;-69
2022/10/28 12:07:13;;;;;;;;;;;;;;;25.71;25.55;95955.28;4980588;28;19976;-69
2022/10/28 12:10:11;;;;;;;;;;;;;;;26.29;25.11;95958.94;4975577;28;19950;-69
2022/10/28 12:12:42;;;;;;;;;;;;;;;25.27;26.36;95965.44;4934860;28;19943;-70
2022/10/28 12:15:22;;;;;;;;;;;;;;;25.92;26.63;95963.50;4979460;28;20349;-69
2022/10/28 12:17:57;;;;;;;;;;;;;;;26.06;25.69;95953.75;4975908;28;19967;-69
2022/10/28 12:20:24;;;;;;;;;;;;;;;26.53;24.65;95956.50;4979136;28;19941;-69
2022/10/28 12:22:59;;;;;;;;;;;;;;;26.49;24.79;95952.66;4954947;28;20520;-70
2022/10/28 12:25:25;;;;;;;;;;;;;;;26.06;25.26;95950.19;4977087;28;20143;-69
2022/10/28 12:28:14;;;;;;;;;;;;;;;26.27;25.26;95945.56;4953035;28;20316;-69
2022/10/28 12:30:39;;;;;;;;;;;;;;;27.22;23.70;95947.94;4957242;28;20366;-69
2022/10/28 12:33:11;;;;;;;;;;;;;;;28.85;22.79;95945.88;4958577;28;19941;-69
2022/10/28 12:35:40;;;;;;;;;;;;;;;30.10;21.30;95944.34;4976725;28;19962;-70
2022/10/28 12:38:07;;;;;;;;;;;;;;;31.46;19.83;95938.16;4958440;28;20911;-70
2022/10/28 12:40:52;;;;;;;;;;;;;;;32.05;18.93;95942.13;4962017;28;20405;-69
2022/10/28 12:43:23;;;;;;;;;;;;;;;30.38;20.13;95941.75;4961413;28;19925;-70
2022/10/28 12:45:49;;;;;;;;;;;;;;;29.62;21.29;95949.66;4977919;28;20482;-70
2022/10/28 12:48:14;;;;;;;;;;;;;;;29.39;20.77;95948.56;4962850;28;19918;-69
2022/10/28 12:50:48;;;;;;;;;;;;;;;29.27;21.53;95951.75;4916273;28;1801862;-70
2022/10/28 12:53:29;;;;;;;;;;;;;;;29.72;21.26;95954.22;4961951;28;19930;-69